Terminal Aerodrome Forecast
Issued by NWS Flagstaff, AZ

Home | Current Version | Previous Version | Text Only | Print | Product List | Glossary On
Versions: 1 2 3 4 5 6 7 8 9 10 11 12 13 14
000
FTUS45 KFGZ 211100
TAFINW
TAF
KINW 211132Z 2112/2212 VRB05KT P6SM FEW060 SCT100
     FM211700 16010G18KT P6SM SCT060
     FM212000 21010KT P6SM BKN060
     FM220200 VRB06KT P6SM FEW050=

USA.gov is the U.S. government's official web portal to all federal, state and local government web resources and services.